createdAt,value
2017-08-15T00:01:29.793Z,12.50
2017-08-15T00:03:57.333Z,12.50
2017-08-15T00:06:24.845Z,12.50
2017-08-15T00:08:52.443Z,12.50
2017-08-15T00:11:19.969Z,12.50
2017-08-15T00:13:47.485Z,12.40
2017-08-15T00:16:15.026Z,12.40
2017-08-15T00:18:42.538Z,12.40
2017-08-15T00:21:10.102Z,12.40
2017-08-15T00:23:37.670Z,12.30
2017-08-15T00:26:05.206Z,12.30
2017-08-15T00:28:32.693Z,12.30
2017-08-15T00:31:00.459Z,12.30
2017-08-15T00:33:27.992Z,12.30
2017-08-15T00:35:55.681Z,12.20
2017-08-15T00:38:23.214Z,12.20
2017-08-15T00:40:50.772Z,12.30
2017-08-15T00:43:18.338Z,12.20
2017-08-15T00:45:45.872Z,12.20
2017-08-15T00:48:13.518Z,12.20
2017-08-15T00:50:41.073Z,12.20
2017-08-15T00:53:08.604Z,12.20
2017-08-15T00:55:36.116Z,12.20
2017-08-15T00:58:03.660Z,12.20
2017-08-15T01:00:31.185Z,12.20
2017-08-15T01:02:58.715Z,12.20
2017-08-15T01:05:26.278Z,12.20
2017-08-15T01:07:53.875Z,12.20
2017-08-15T01:10:21.434Z,12.20
2017-08-15T01:12:49.003Z,12.30
2017-08-15T01:15:16.729Z,12.30
2017-08-15T01:17:44.265Z,12.30
2017-08-15T01:20:12.203Z,12.30
2017-08-15T01:22:39.780Z,12.40
2017-08-15T01:25:07.291Z,12.50
2017-08-15T01:27:34.846Z,12.50
2017-08-15T01:30:02.419Z,12.50
2017-08-15T01:32:29.912Z,12.60
2017-08-15T01:34:57.472Z,12.60
2017-08-15T01:37:25.054Z,12.50
2017-08-15T01:39:52.583Z,12.50
2017-08-15T01:42:20.138Z,12.50
2017-08-15T01:44:47.696Z,12.50
2017-08-15T01:47:15.247Z,12.50
2017-08-15T01:49:42.795Z,12.50
2017-08-15T01:52:10.512Z,12.50
2017-08-15T01:54:38.064Z,12.50
2017-08-15T01:57:05.580Z,12.50
2017-08-15T01:59:33.169Z,12.60
2017-08-15T02:02:00.707Z,12.60
2017-08-15T02:04:28.213Z,12.60
2017-08-15T02:06:55.794Z,12.60
2017-08-15T02:09:23.321Z,12.50
2017-08-15T02:11:50.801Z,12.50
2017-08-15T02:14:18.396Z,12.50
2017-08-15T02:16:45.973Z,12.50
2017-08-15T02:19:13.463Z,12.40
2017-08-15T02:21:41.207Z,12.40
2017-08-15T02:24:08.753Z,12.30
2017-08-15T02:26:36.280Z,12.30
2017-08-15T02:29:03.811Z,12.30
2017-08-15T02:31:31.329Z,12.30
2017-08-15T02:33:58.845Z,12.40
2017-08-15T02:36:26.441Z,12.40
2017-08-15T02:38:53.979Z,12.40
2017-08-15T02:41:21.539Z,12.50
2017-08-15T02:43:49.088Z,12.50
2017-08-15T02:46:16.607Z,12.50
2017-08-15T02:48:44.130Z,12.50
2017-08-15T02:51:11.748Z,12.50
2017-08-15T02:53:39.299Z,12.50
2017-08-15T02:56:06.817Z,12.60
2017-08-15T02:58:34.371Z,12.70
2017-08-15T03:01:01.882Z,12.70
2017-08-15T03:03:29.430Z,12.70
2017-08-15T03:05:56.985Z,12.70
2017-08-15T03:08:24.504Z,12.60
2017-08-15T03:10:52.024Z,12.60
2017-08-15T03:13:19.610Z,12.60
2017-08-15T03:15:47.154Z,12.60
2017-08-15T03:18:14.645Z,12.60
2017-08-15T03:20:42.223Z,12.60
2017-08-15T03:23:09.764Z,12.60
2017-08-15T03:25:37.298Z,12.60
2017-08-15T03:28:04.945Z,12.70
2017-08-15T03:30:32.514Z,12.80
2017-08-15T03:33:00.083Z,12.90
2017-08-15T03:35:27.808Z,12.90
2017-08-15T03:37:55.349Z,12.90
2017-08-15T03:40:22.900Z,13.00
2017-08-15T03:42:50.461Z,13.00
2017-08-15T03:45:17.992Z,13.10
2017-08-15T03:47:45.543Z,13.30
2017-08-15T03:50:13.116Z,13.40
2017-08-15T03:52:40.609Z,13.40
2017-08-15T03:55:08.168Z,13.50
2017-08-15T03:57:36.004Z,13.60
2017-08-15T04:00:03.497Z,13.70
2017-08-15T04:02:31.082Z,13.80
2017-08-15T04:04:58.828Z,14.10
2017-08-15T04:07:26.385Z,14.20
2017-08-15T04:09:53.953Z,14.30
2017-08-15T04:12:21.715Z,14.40
2017-08-15T04:14:49.300Z,14.60
2017-08-15T04:17:16.821Z,15.10
2017-08-15T04:19:44.632Z,15.90
2017-08-15T04:22:12.445Z,16.80
2017-08-15T04:24:40.011Z,17.50
2017-08-15T04:27:07.592Z,18.30
2017-08-15T04:29:35.110Z,19.00
2017-08-15T04:32:02.668Z,19.60
2017-08-15T04:34:30.335Z,20.20
2017-08-15T04:36:57.881Z,20.70
2017-08-15T04:39:25.408Z,21.30
2017-08-15T04:41:52.989Z,21.50
2017-08-15T04:44:20.584Z,22.20
2017-08-15T04:46:48.139Z,22.40
2017-08-15T04:49:15.741Z,22.30
2017-08-15T04:51:43.299Z,22.60
2017-08-15T04:54:10.854Z,22.90
2017-08-15T04:56:39.101Z,22.90
2017-08-15T04:59:06.695Z,23.40
2017-08-15T05:01:34.270Z,24.00
2017-08-15T05:04:01.911Z,24.00
2017-08-15T05:06:29.541Z,23.80
2017-08-15T05:08:57.103Z,24.40
2017-08-15T05:11:26.207Z,25.10
2017-08-15T05:13:53.766Z,25.90
2017-08-15T05:16:21.330Z,26.50
2017-08-15T05:18:48.936Z,26.40
2017-08-15T05:21:16.444Z,26.70
2017-08-15T05:23:43.977Z,26.90
2017-08-15T05:26:11.505Z,27.40
2017-08-15T05:28:39.061Z,27.60
2017-08-15T05:31:06.635Z,29.00
2017-08-15T05:33:34.169Z,29.30
2017-08-15T05:36:01.711Z,30.10
2017-08-15T05:38:29.289Z,30.50
2017-08-15T05:40:56.871Z,30.90
2017-08-15T05:43:24.387Z,31.00
2017-08-15T05:45:51.933Z,31.60
2017-08-15T05:48:19.534Z,31.50
2017-08-15T05:50:47.063Z,31.70
2017-08-15T05:53:14.612Z,32.30
2017-08-15T05:55:42.214Z,33.00
2017-08-15T05:58:09.817Z,32.90
2017-08-15T06:00:38.219Z,32.80
2017-08-15T06:03:05.802Z,33.00
2017-08-15T06:05:33.339Z,33.00
2017-08-15T06:08:00.871Z,32.50
2017-08-15T06:10:28.417Z,32.80
2017-08-15T06:12:55.950Z,33.50
2017-08-15T06:15:23.637Z,34.30
2017-08-15T06:17:51.351Z,34.30
2017-08-15T06:20:18.870Z,33.80
2017-08-15T06:22:46.411Z,33.80
2017-08-15T06:25:14.074Z,34.20
2017-08-15T06:27:41.733Z,33.60
2017-08-15T06:30:09.264Z,33.70
2017-08-15T06:32:36.795Z,32.60
2017-08-15T06:35:04.345Z,32.70
2017-08-15T06:37:31.900Z,31.90
2017-08-15T06:39:59.444Z,31.30
2017-08-15T06:42:26.987Z,31.40
2017-08-15T06:44:54.541Z,31.30
2017-08-15T06:47:22.146Z,31.40
2017-08-15T06:49:49.641Z,31.90
2017-08-15T06:52:17.192Z,33.50
2017-08-15T06:54:44.714Z,34.30
2017-08-15T06:57:12.226Z,34.20
2017-08-15T06:59:39.776Z,34.50
2017-08-15T07:02:07.357Z,34.70
2017-08-15T07:04:34.874Z,35.40
2017-08-15T07:07:02.428Z,34.80
2017-08-15T07:09:29.977Z,35.70
2017-08-15T07:11:57.528Z,34.60
2017-08-15T07:14:25.034Z,34.00
2017-08-15T07:16:52.564Z,34.40
2017-08-15T07:19:20.147Z,35.50
2017-08-15T07:21:47.664Z,36.20
2017-08-15T07:24:15.241Z,36.60
2017-08-15T07:26:42.763Z,36.10
2017-08-15T07:29:10.261Z,35.80
2017-08-15T07:31:37.950Z,36.30
2017-08-15T07:34:05.468Z,36.30
2017-08-15T07:39:25.349Z,38.40
2017-08-15T07:41:52.841Z,39.50
2017-08-15T07:44:20.400Z,38.60
2017-08-15T07:46:47.996Z,38.30
2017-08-15T07:49:29.220Z,37.80
2017-08-15T07:51:56.755Z,36.50
2017-08-15T07:54:24.306Z,37.00
2017-08-15T07:56:51.810Z,37.90
2017-08-15T07:59:19.378Z,38.40
2017-08-15T08:01:46.862Z,37.40
2017-08-15T08:04:14.380Z,36.60
2017-08-15T08:06:42.094Z,37.30
2017-08-15T08:09:09.648Z,37.10
2017-08-15T08:11:37.184Z,37.10
2017-08-15T08:14:04.787Z,37.60
2017-08-15T08:16:32.304Z,37.70
2017-08-15T08:18:59.850Z,39.10
2017-08-15T08:21:27.434Z,40.00
2017-08-15T08:23:54.981Z,40.10
2017-08-15T08:26:22.497Z,40.00
2017-08-15T08:28:50.030Z,38.40
2017-08-15T08:31:17.541Z,37.90
2017-08-15T08:33:45.105Z,38.80
2017-08-15T08:36:12.692Z,38.80
2017-08-15T08:38:40.323Z,38.50
2017-08-15T08:41:07.877Z,38.10
2017-08-15T08:43:35.452Z,39.50
2017-08-15T08:46:06.888Z,39.20
2017-08-15T08:48:34.456Z,38.50
2017-08-15T08:51:02.185Z,38.70
2017-08-15T08:53:29.763Z,39.60
2017-08-15T08:55:57.280Z,40.00
2017-08-15T08:58:24.845Z,40.00
2017-08-15T09:00:52.402Z,38.30
2017-08-15T09:03:19.945Z,38.10
2017-08-15T09:05:47.515Z,38.70
2017-08-15T09:08:15.015Z,38.90
2017-08-15T09:10:42.553Z,38.30
2017-08-15T09:13:10.139Z,38.60
2017-08-15T09:15:37.696Z,39.20
2017-08-15T09:18:05.208Z,40.40
2017-08-15T09:20:32.937Z,39.70
2017-08-15T09:23:00.523Z,39.70
2017-08-15T09:25:28.120Z,38.90
2017-08-15T09:27:55.740Z,38.50
2017-08-15T09:30:23.234Z,38.80
2017-08-15T09:32:50.758Z,38.50
2017-08-15T09:35:18.349Z,38.60
2017-08-15T09:37:45.950Z,38.70
2017-08-15T09:40:13.461Z,38.50
2017-08-15T09:42:41.189Z,39.10
2017-08-15T09:45:09.454Z,38.80
2017-08-15T09:47:36.989Z,39.10
2017-08-15T09:50:04.533Z,39.60
2017-08-15T09:52:32.077Z,39.60
2017-08-15T09:54:59.706Z,38.60
2017-08-15T09:57:27.385Z,38.50
2017-08-15T09:59:55.076Z,38.60
2017-08-15T10:02:22.619Z,36.60
2017-08-15T10:04:50.236Z,36.80
2017-08-15T10:07:17.811Z,36.90
2017-08-15T10:09:45.308Z,37.00
2017-08-15T10:12:12.920Z,37.30
2017-08-15T10:14:40.496Z,36.90
2017-08-15T10:17:08.060Z,37.40
2017-08-15T10:19:35.810Z,37.90
2017-08-15T10:22:03.353Z,38.30
2017-08-15T10:24:30.948Z,38.20
2017-08-15T10:26:58.522Z,38.30
2017-08-15T10:29:26.054Z,37.10
2017-08-15T10:31:53.609Z,36.80
2017-08-15T10:34:21.357Z,35.70
2017-08-15T10:36:51.826Z,35.20
2017-08-15T10:39:19.370Z,34.70
2017-08-15T10:41:47.086Z,34.70
2017-08-15T10:44:14.700Z,34.50
2017-08-15T10:46:42.216Z,34.70
2017-08-15T10:49:09.794Z,35.40
2017-08-15T10:51:37.289Z,35.50
2017-08-15T10:54:04.865Z,35.50
2017-08-15T10:56:32.449Z,36.20
2017-08-15T10:59:00.000Z,36.70
2017-08-15T11:01:27.565Z,36.70
2017-08-15T11:03:55.169Z,36.90
2017-08-15T11:06:22.740Z,35.90
2017-08-15T11:08:50.907Z,35.00
2017-08-15T11:11:18.514Z,34.30
2017-08-15T11:13:46.076Z,32.70
2017-08-15T11:16:13.621Z,31.80
2017-08-15T11:18:41.201Z,32.50
2017-08-15T11:21:08.741Z,33.50
2017-08-15T11:23:36.325Z,33.30
2017-08-15T11:26:03.901Z,34.30
2017-08-15T11:28:31.458Z,35.20
2017-08-15T11:30:59.055Z,36.50
2017-08-15T11:33:26.802Z,36.60
2017-08-15T11:35:54.344Z,35.40
2017-08-15T11:38:21.932Z,33.20
2017-08-15T11:40:49.480Z,32.70
2017-08-15T11:43:17.331Z,33.50
2017-08-15T11:45:44.891Z,33.70
2017-08-15T11:48:12.530Z,33.60
2017-08-15T11:50:40.111Z,32.80
2017-08-15T11:53:07.689Z,31.70
2017-08-15T11:55:35.269Z,30.90
2017-08-15T11:58:02.785Z,30.30
2017-08-15T12:00:31.325Z,29.90
2017-08-15T12:02:59.961Z,29.90
2017-08-15T12:05:27.724Z,29.90
2017-08-15T12:07:55.298Z,29.80
2017-08-15T12:10:22.900Z,29.80
2017-08-15T12:12:50.397Z,29.70
2017-08-15T12:15:18.153Z,29.10
2017-08-15T12:17:45.754Z,28.90
2017-08-15T12:20:13.312Z,28.40
2017-08-15T12:22:40.853Z,28.10
2017-08-15T12:25:08.423Z,28.00
2017-08-15T12:27:35.985Z,28.10
2017-08-15T12:30:03.544Z,28.00
2017-08-15T12:32:31.179Z,28.10
2017-08-15T12:34:58.712Z,28.20
2017-08-15T12:37:26.279Z,28.30
2017-08-15T12:39:53.864Z,28.40
2017-08-15T12:42:21.381Z,28.60
2017-08-15T12:44:48.948Z,28.40
2017-08-15T12:47:16.484Z,28.00
2017-08-15T12:49:44.087Z,27.60
2017-08-15T12:52:11.703Z,27.70
2017-08-15T12:54:39.327Z,27.90
2017-08-15T12:57:06.819Z,28.00
2017-08-15T12:59:34.404Z,28.00
2017-08-15T13:02:02.150Z,27.80
2017-08-15T13:04:29.865Z,27.60
2017-08-15T13:06:57.534Z,27.60
2017-08-15T13:09:25.326Z,27.50
2017-08-15T13:11:53.830Z,27.30
2017-08-15T13:14:21.894Z,27.30
2017-08-15T13:16:50.655Z,27.30
2017-08-15T13:19:19.318Z,27.20
2017-08-15T13:21:47.424Z,27.00
2017-08-15T13:24:16.374Z,27.10
2017-08-15T13:26:44.489Z,27.20
2017-08-15T13:29:12.498Z,27.10
2017-08-15T13:31:40.299Z,27.00
2017-08-15T13:34:07.859Z,27.20
2017-08-15T13:36:35.410Z,27.20
2017-08-15T13:39:03.186Z,27.10
2017-08-15T13:41:30.747Z,27.20
2017-08-15T13:43:58.295Z,27.20
2017-08-15T13:46:25.936Z,27.10
2017-08-15T13:48:53.507Z,27.30
2017-08-15T13:51:21.092Z,27.30
2017-08-15T13:53:48.814Z,27.30
2017-08-15T13:56:16.559Z,27.30
2017-08-15T13:58:44.708Z,27.30
2017-08-15T14:01:12.432Z,27.50
2017-08-15T14:03:39.995Z,27.50
2017-08-15T14:06:07.574Z,27.50
2017-08-15T14:08:35.337Z,27.40
2017-08-15T14:11:03.252Z,27.30
2017-08-15T14:13:30.911Z,27.40
2017-08-15T14:15:58.575Z,27.40
2017-08-15T14:18:26.173Z,27.40
2017-08-15T14:20:53.718Z,27.40
2017-08-15T14:23:21.382Z,27.30
2017-08-15T14:25:48.963Z,27.40
2017-08-15T14:28:16.536Z,27.40
2017-08-15T14:30:44.626Z,27.40
2017-08-15T14:36:02.674Z,27.30
2017-08-15T14:38:30.234Z,27.40
2017-08-15T14:40:57.794Z,27.60
2017-08-15T14:43:25.591Z,27.50
2017-08-15T14:45:53.179Z,27.60
2017-08-15T14:48:20.791Z,27.50
2017-08-15T14:50:49.038Z,27.50
2017-08-15T14:53:16.560Z,27.40
2017-08-15T14:55:44.302Z,27.40
2017-08-15T14:58:12.490Z,27.30
2017-08-15T15:00:40.032Z,27.30
2017-08-15T15:03:07.680Z,27.20
2017-08-15T15:05:35.275Z,27.10
2017-08-15T15:08:02.847Z,27.20
2017-08-15T15:10:30.434Z,27.30
2017-08-15T15:12:58.033Z,27.30
2017-08-15T15:15:25.640Z,27.10
2017-08-15T15:17:53.150Z,27.00
2017-08-15T15:20:20.759Z,26.90
2017-08-15T15:22:49.099Z,26.90
2017-08-15T15:25:16.590Z,27.00
2017-08-15T15:27:44.177Z,26.90
2017-08-15T15:30:11.761Z,26.90
2017-08-15T15:32:39.315Z,26.90
2017-08-15T15:35:07.035Z,26.80
2017-08-15T15:37:34.640Z,26.80
2017-08-15T15:40:02.203Z,26.80
2017-08-15T15:42:29.787Z,26.80
2017-08-15T15:44:57.359Z,26.60
2017-08-15T15:47:24.926Z,26.60
2017-08-15T15:49:52.554Z,26.60
2017-08-15T15:52:20.142Z,26.60
2017-08-15T15:54:47.742Z,26.60
2017-08-15T15:57:15.338Z,26.40
2017-08-15T15:59:42.910Z,26.50
2017-08-15T16:02:10.461Z,26.50
2017-08-15T16:04:38.046Z,26.50
2017-08-15T16:07:05.629Z,26.50
2017-08-15T16:09:33.179Z,26.40
2017-08-15T16:12:00.767Z,26.30
2017-08-15T16:14:28.295Z,26.30
2017-08-15T16:16:55.857Z,26.20
2017-08-15T16:19:23.403Z,26.20
2017-08-15T16:21:50.998Z,26.10
2017-08-15T16:24:18.744Z,26.00
2017-08-15T16:26:46.613Z,26.00
2017-08-15T16:29:15.098Z,25.90
2017-08-15T16:31:42.681Z,25.90
2017-08-15T16:34:10.288Z,25.90
2017-08-15T16:36:37.838Z,25.80
2017-08-15T16:39:05.608Z,25.70
2017-08-15T16:41:33.225Z,25.70
2017-08-15T16:44:00.729Z,25.60
2017-08-15T16:46:28.259Z,25.60
2017-08-15T16:48:55.800Z,25.60
2017-08-15T16:51:23.366Z,25.60
2017-08-15T16:53:51.708Z,25.50
2017-08-15T16:56:19.326Z,25.50
2017-08-15T16:58:46.859Z,25.40
2017-08-15T17:01:14.447Z,25.30
2017-08-15T17:03:42.042Z,25.20
2017-08-15T17:06:09.600Z,25.20
2017-08-15T17:08:37.164Z,25.00
2017-08-15T17:11:04.738Z,24.90
2017-08-15T17:13:32.291Z,24.70
2017-08-15T17:16:01.169Z,24.60
2017-08-15T17:18:29.045Z,24.50
2017-08-15T17:20:56.674Z,24.30
2017-08-15T17:23:31.575Z,24.10
2017-08-15T17:25:59.181Z,23.90
2017-08-15T17:28:26.738Z,23.80
2017-08-15T17:30:54.474Z,23.70
2017-08-15T17:33:22.006Z,23.60
2017-08-15T17:35:49.597Z,23.50
2017-08-15T17:38:17.363Z,23.50
2017-08-15T17:40:45.553Z,23.40
2017-08-15T17:43:13.187Z,23.30
2017-08-15T17:45:40.738Z,23.10
2017-08-15T17:48:08.279Z,23.00
2017-08-15T17:50:35.809Z,22.80
2017-08-15T17:53:03.419Z,22.60
2017-08-15T17:55:31.326Z,22.40
2017-08-15T17:57:58.939Z,22.30
2017-08-15T18:00:26.668Z,22.20
2017-08-15T18:02:54.283Z,22.00
2017-08-15T18:05:21.870Z,21.80
2017-08-15T18:07:49.553Z,21.70
2017-08-15T18:10:17.162Z,21.60
2017-08-15T18:12:44.951Z,21.50
2017-08-15T18:15:12.609Z,21.30
2017-08-15T18:17:40.221Z,21.10
2017-08-15T18:20:07.830Z,21.00
2017-08-15T18:22:35.608Z,20.90
2017-08-15T18:25:03.727Z,20.70
2017-08-15T18:27:33.280Z,20.60
2017-08-15T18:30:01.180Z,20.60
2017-08-15T18:32:28.840Z,20.50
2017-08-15T18:34:56.469Z,20.40
2017-08-15T18:37:24.124Z,20.30
2017-08-15T18:39:51.771Z,20.30
2017-08-15T18:42:19.393Z,20.30
2017-08-15T18:44:47.188Z,20.50
2017-08-15T18:47:14.778Z,20.80
2017-08-15T18:49:42.413Z,21.10
2017-08-15T18:52:10.175Z,21.20
2017-08-15T18:54:37.758Z,21.10
2017-08-15T18:57:06.488Z,21.10
2017-08-15T18:59:34.190Z,21.00
2017-08-15T19:02:01.772Z,21.00
2017-08-15T19:04:31.338Z,21.00
2017-08-15T19:06:59.800Z,21.10
2017-08-15T19:09:27.532Z,21.10
2017-08-15T19:11:56.152Z,21.00
2017-08-15T19:14:23.798Z,20.90
2017-08-15T19:16:51.323Z,20.90
2017-08-15T19:19:19.701Z,21.00
2017-08-15T19:21:47.496Z,21.10
2017-08-15T19:24:15.440Z,21.20
2017-08-15T19:26:43.952Z,21.10
2017-08-15T19:29:11.710Z,21.10
2017-08-15T19:31:39.270Z,21.30
2017-08-15T19:34:06.859Z,21.30
2017-08-15T19:36:34.736Z,21.30
2017-08-15T19:39:02.311Z,21.20
2017-08-15T19:41:29.913Z,21.20
2017-08-15T19:43:57.648Z,21.20
2017-08-15T19:46:25.222Z,21.30
2017-08-15T19:48:52.805Z,21.50
2017-08-15T19:51:20.448Z,21.60
2017-08-15T19:53:48.039Z,21.60
2017-08-15T19:56:16.215Z,21.70
2017-08-15T19:58:43.940Z,21.80
2017-08-15T20:01:12.043Z,21.60
2017-08-15T20:03:39.602Z,21.50
2017-08-15T20:06:07.351Z,21.40
2017-08-15T20:08:34.959Z,21.30
2017-08-15T20:11:02.566Z,21.40
2017-08-15T20:13:30.245Z,21.40
2017-08-15T20:15:58.025Z,21.40
2017-08-15T20:18:26.369Z,21.50
2017-08-15T20:20:54.696Z,21.50
2017-08-15T20:23:22.235Z,21.60
2017-08-15T20:25:50.650Z,21.70
2017-08-15T20:28:18.460Z,21.70
2017-08-15T20:30:46.081Z,21.70
2017-08-15T20:33:13.995Z,21.70
2017-08-15T20:35:42.240Z,21.70
2017-08-15T20:38:10.881Z,21.70
2017-08-15T20:40:40.139Z,21.60
2017-08-15T20:43:08.036Z,21.50
2017-08-15T20:45:35.662Z,21.40
2017-08-15T20:48:03.341Z,21.40
2017-08-15T20:50:31.223Z,21.40
2017-08-15T20:52:58.869Z,21.40
2017-08-15T20:55:26.499Z,21.40
2017-08-15T20:57:54.373Z,21.40
2017-08-15T21:00:22.067Z,21.60
2017-08-15T21:02:49.728Z,21.60
2017-08-15T21:05:18.785Z,21.50
2017-08-15T21:07:46.424Z,21.50
2017-08-15T21:10:14.258Z,21.40
2017-08-15T21:12:42.561Z,21.30
2017-08-15T21:15:10.152Z,21.30
2017-08-15T21:17:38.211Z,21.20
2017-08-15T21:20:06.874Z,21.20
2017-08-15T21:22:34.508Z,21.10
2017-08-15T21:25:02.070Z,21.10
2017-08-15T21:27:30.358Z,21.00
2017-08-15T21:29:57.918Z,20.90
2017-08-15T21:32:25.500Z,20.80
2017-08-15T21:34:53.253Z,20.80
2017-08-15T21:37:20.801Z,20.80
2017-08-15T21:39:48.305Z,20.80
2017-08-15T21:42:15.861Z,20.90
2017-08-15T21:44:43.442Z,20.90
2017-08-15T21:47:10.985Z,20.80
2017-08-15T21:49:38.754Z,20.80
2017-08-15T21:52:06.294Z,20.80
2017-08-15T21:54:33.906Z,20.80
2017-08-15T21:57:01.479Z,20.80
2017-08-15T21:59:29.062Z,20.80
2017-08-15T22:02:02.193Z,20.80
2017-08-15T22:04:29.726Z,20.80
2017-08-15T22:06:57.254Z,20.70
2017-08-15T22:09:24.784Z,20.70
2017-08-15T22:11:52.282Z,20.70
2017-08-15T22:14:19.854Z,20.70
2017-08-15T22:16:47.406Z,20.60
2017-08-15T22:19:14.911Z,20.60
2017-08-15T22:21:42.486Z,20.50
2017-08-15T22:24:10.287Z,20.50
2017-08-15T22:26:37.874Z,20.40
2017-08-15T22:29:05.417Z,20.40
2017-08-15T22:31:32.976Z,20.30
2017-08-15T22:34:00.532Z,20.20
2017-08-15T22:36:28.021Z,20.10
2017-08-15T22:38:55.617Z,20.00
2017-08-15T22:41:23.132Z,19.90
2017-08-15T22:43:50.703Z,19.80
2017-08-15T22:46:18.276Z,19.70
2017-08-15T22:48:45.842Z,19.70
2017-08-15T22:51:13.344Z,19.60
2017-08-15T22:53:40.951Z,19.50
2017-08-15T22:56:08.488Z,19.40
2017-08-15T22:58:35.987Z,19.30
2017-08-15T23:01:03.541Z,19.20
2017-08-15T23:03:31.068Z,19.20
2017-08-15T23:05:58.665Z,19.10
2017-08-15T23:08:26.185Z,19.10
2017-08-15T23:10:53.782Z,19.10
2017-08-15T23:13:21.330Z,19.10
2017-08-15T23:15:48.924Z,19.20
2017-08-15T23:18:16.466Z,19.20
2017-08-15T23:20:44.004Z,19.10
2017-08-15T23:23:11.614Z,19.10
2017-08-15T23:25:39.153Z,19.10
2017-08-15T23:28:06.699Z,19.20
2017-08-15T23:30:34.269Z,19.20
2017-08-15T23:33:01.814Z,19.20
2017-08-15T23:35:29.362Z,19.20
2017-08-15T23:37:56.906Z,19.20
2017-08-15T23:40:24.374Z,19.30
2017-08-15T23:42:51.912Z,19.40
2017-08-15T23:45:19.502Z,19.50
2017-08-15T23:47:47.029Z,19.60
2017-08-15T23:50:14.609Z,19.70
2017-08-15T23:52:42.373Z,19.70
2017-08-15T23:55:09.907Z,19.80
2017-08-15T23:57:37.410Z,19.90
